This is the latest recevied weather packets stored in our database for station/object EA1RCG-11. If no packets are shown the sender has not sent any weather packets the latest 10 day(s).
| Time | Temp. | Humidity | Pressure | Rain* | Wind** | Luminosity | Snow |
|---|---|---|---|---|---|---|---|
| 1787652432 | 22.22° C | 58% | 978.5 hPa | - | - | - | - |
| 1787650632 | 22.22° C | 58% | 978.1 hPa | - | - | - | - |
| 1787648832 | 23.89° C | 55% | 977.6 hPa | - | - | - | - |
| 1787647032 | 23.89° C | 55% | 977.4 hPa | - | - | - | - |
| 1787645232 | 22.78° C | 57% | 977.3 hPa | - | - | - | - |
| 1787643432 | 29.44° C | 46% | 977.1 hPa | - | - | - | - |
| 1787641632 | 27.78° C | 48% | 976.9 hPa | - | - | - | - |
| 1787639832 | 20° C | 60% | 977.1 hPa | - | - | - | - |
| 1787638032 | 20° C | 60% | 976.8 hPa | - | - | - | - |
| 1787636231 | 19.44° C | 60% | 976.8 hPa | - | - | - | - |
| 1787634431 | 19.44° C | 60% | 976.5 hPa | - | - | - | - |
| 1787632631 | 19.44° C | 60% | 976.3 hPa | - | - | - | - |
| 1787630831 | 20° C | 60% | 976.4 hPa | - | - | - | - |
| 1787629031 | 20° C | 60% | 976.5 hPa | - | - | - | - |
| 1787627231 | 20° C | 59% | 976.5 hPa | - | - | - | - |
| 1787625431 | 20° C | 59% | 976.5 hPa | - | - | - | - |
| 1787623631 | 20.56° C | 59% | 976.5 hPa | - | - | - | - |
| 1787621831 | 20.56° C | 59% | 976.5 hPa | - | - | - | - |
| 1787620031 | 20.56° C | 58% | 976.4 hPa | - | - | - | - |
| 1787618230 | 20.56° C | 58% | 976.4 hPa | - | - | - | - |
| 1787616430 | 20.56° C | 58% | 975.9 hPa | - | - | - | - |
| 1787614630 | 20.56° C | 58% | 975.7 hPa | - | - | - | - |
| 1787612830 | 21.11° C | 58% | 975.6 hPa | - | - | - | - |
| 1787611030 | 21.11° C | 58% | 975.3 hPa | - | - | - | - |
| 1787609230 | 21.11° C | 58% | 975 hPa | - | - | - | - |
* Rain since midnight (hover to see other rain measurements)
** Current wind speed in m/s (hover to see current wind gust speed)